sensor_id;sensor_type;location;lat;lon;timestamp;P1;durP1;ratioP1;P2;durP2;ratioP2
9986;SDS011;5033;46.310;11.214;2023-04-24T00:00:53;4.13;;;3.83;;
9986;SDS011;5033;46.310;11.214;2023-04-24T00:03:21;4.00;;;3.70;;
9986;SDS011;5033;46.310;11.214;2023-04-24T00:05:48;3.90;;;3.60;;
9986;SDS011;5033;46.310;11.214;2023-04-24T00:08:16;4.35;;;3.38;;
9986;SDS011;5033;46.310;11.214;2023-04-24T00:10:43;3.70;;;3.40;;
9986;SDS011;5033;46.310;11.214;2023-04-24T00:13:10;4.00;;;3.70;;
9986;SDS011;5033;46.310;11.214;2023-04-24T00:15:39;4.38;;;3.97;;
9986;SDS011;5033;46.310;11.214;2023-04-24T00:18:06;4.07;;;3.78;;
9986;SDS011;5033;46.310;11.214;2023-04-24T00:20:33;3.92;;;3.58;;
9986;SDS011;5033;46.310;11.214;2023-04-24T00:23:01;4.47;;;4.07;;
9986;SDS011;5033;46.310;11.214;2023-04-24T00:25:28;6.05;;;5.10;;
9986;SDS011;5033;46.310;11.214;2023-04-24T00:27:55;4.47;;;4.07;;
9986;SDS011;5033;46.310;11.214;2023-04-24T00:30:22;4.93;;;4.10;;
9986;SDS011;5033;46.310;11.214;2023-04-24T00:32:51;4.35;;;3.97;;
9986;SDS011;5033;46.310;11.214;2023-04-24T00:35:18;4.15;;;3.85;;
9986;SDS011;5033;46.310;11.214;2023-04-24T00:37:46;3.95;;;3.65;;
9986;SDS011;5033;46.310;11.214;2023-04-24T00:40:13;4.40;;;4.10;;
9986;SDS011;5033;46.310;11.214;2023-04-24T00:42:40;4.50;;;4.18;;
9986;SDS011;5033;46.310;11.214;2023-04-24T00:45:07;4.50;;;4.15;;
9986;SDS011;5033;46.310;11.214;2023-04-24T00:47:35;4.00;;;3.60;;
9986;SDS011;5033;46.310;11.214;2023-04-24T00:50:06;4.20;;;3.85;;
9986;SDS011;5033;46.310;11.214;2023-04-24T00:52:34;4.20;;;3.90;;
9986;SDS011;5033;46.310;11.214;2023-04-24T00:55:02;6.13;;;5.63;;
9986;SDS011;5033;46.310;11.214;2023-04-24T00:57:30;4.88;;;4.38;;
9986;SDS011;5033;46.310;11.214;2023-04-24T00:59:58;4.28;;;3.88;;
9986;SDS011;5033;46.310;11.214;2023-04-24T01:02:25;3.80;;;3.50;;
9986;SDS011;5033;46.310;11.214;2023-04-24T01:04:52;4.57;;;4.18;;
9986;SDS011;5033;46.310;11.214;2023-04-24T01:07:21;4.00;;;3.70;;
9986;SDS011;5033;46.310;11.214;2023-04-24T01:09:50;3.63;;;3.40;;
9986;SDS011;5033;46.310;11.214;2023-04-24T01:12:18;3.83;;;3.33;;
9986;SDS011;5033;46.310;11.214;2023-04-24T01:14:45;3.28;;;3.08;;
9986;SDS011;5033;46.310;11.214;2023-04-24T01:17:13;3.20;;;2.90;;
9986;SDS011;5033;46.310;11.214;2023-04-24T01:19:40;3.08;;;2.83;;
9986;SDS011;5033;46.310;11.214;2023-04-24T01:22:11;3.17;;;2.97;;
9986;SDS011;5033;46.310;11.214;2023-04-24T01:24:41;2.30;;;2.20;;
9986;SDS011;5033;46.310;11.214;2023-04-24T01:27:09;2.85;;;2.65;;
9986;SDS011;5033;46.310;11.214;2023-04-24T01:29:36;2.88;;;2.67;;
9986;SDS011;5033;46.310;11.214;2023-04-24T01:32:04;2.78;;;2.58;;
9986;SDS011;5033;46.310;11.214;2023-04-24T01:34:32;2.80;;;2.60;;
9986;SDS011;5033;46.310;11.214;2023-04-24T01:36:59;3.03;;;2.83;;
9986;SDS011;5033;46.310;11.214;2023-04-24T01:39:28;2.67;;;2.47;;
9986;SDS011;5033;46.310;11.214;2023-04-24T01:41:55;2.90;;;2.70;;
9986;SDS011;5033;46.310;11.214;2023-04-24T01:44:23;2.55;;;2.42;;
9986;SDS011;5033;46.310;11.214;2023-04-24T01:46:50;2.67;;;2.47;;
9986;SDS011;5033;46.310;11.214;2023-04-24T01:49:19;2.78;;;2.58;;
9986;SDS011;5033;46.310;11.214;2023-04-24T01:51:46;3.00;;;2.80;;
9986;SDS011;5033;46.310;11.214;2023-04-24T01:54:13;3.25;;;3.05;;
9986;SDS011;5033;46.310;11.214;2023-04-24T01:56:42;3.17;;;2.95;;
9986;SDS011;5033;46.310;11.214;2023-04-24T01:59:10;3.33;;;3.13;;
9986;SDS011;5033;46.310;11.214;2023-04-24T02:01:38;3.00;;;2.80;;
9986;SDS011;5033;46.310;11.214;2023-04-24T02:04:06;3.35;;;3.05;;
9986;SDS011;5033;46.310;11.214;2023-04-24T02:06:33;3.05;;;2.85;;
9986;SDS011;5033;46.310;11.214;2023-04-24T02:09:00;3.42;;;3.13;;
9986;SDS011;5033;46.310;11.214;2023-04-24T02:11:29;2.92;;;2.70;;
9986;SDS011;5033;46.310;11.214;2023-04-24T02:13:57;3.10;;;2.90;;
9986;SDS011;5033;46.310;11.214;2023-04-24T02:16:24;3.13;;;2.92;;
9986;SDS011;5033;46.310;11.214;2023-04-24T02:18:51;3.97;;;3.67;;
9986;SDS011;5033;46.310;11.214;2023-04-24T02:21:18;3.53;;;3.33;;
9986;SDS011;5033;46.310;11.214;2023-04-24T02:23:46;4.07;;;3.78;;
9986;SDS011;5033;46.310;11.214;2023-04-24T02:26:13;3.50;;;3.20;;
9986;SDS011;5033;46.310;11.214;2023-04-24T02:28:40;3.88;;;3.58;;
9986;SDS011;5033;46.310;11.214;2023-04-24T02:31:09;4.03;;;3.72;;
9986;SDS011;5033;46.310;11.214;2023-04-24T02:33:36;3.30;;;3.10;;
9986;SDS011;5033;46.310;11.214;2023-04-24T02:36:03;3.10;;;2.90;;
9986;SDS011;5033;46.310;11.214;2023-04-24T02:38:30;3.10;;;2.90;;
9986;SDS011;5033;46.310;11.214;2023-04-24T02:40:57;3.15;;;2.85;;
9986;SDS011;5033;46.310;11.214;2023-04-24T02:43:25;2.70;;;2.55;;
9986;SDS011;5033;46.310;11.214;2023-04-24T02:45:53;2.55;;;2.35;;
9986;SDS011;5033;46.310;11.214;2023-04-24T02:48:21;2.72;;;2.60;;
9986;SDS011;5033;46.310;11.214;2023-04-24T02:50:48;2.92;;;2.65;;
9986;SDS011;5033;46.310;11.214;2023-04-24T02:53:16;2.83;;;2.63;;
9986;SDS011;5033;46.310;11.214;2023-04-24T02:55:43;2.60;;;2.40;;
9986;SDS011;5033;46.310;11.214;2023-04-24T02:58:11;2.70;;;2.60;;
9986;SDS011;5033;46.310;11.214;2023-04-24T03:00:38;3.30;;;3.10;;
9986;SDS011;5033;46.310;11.214;2023-04-24T03:03:05;2.50;;;2.40;;
9986;SDS011;5033;46.310;11.214;2023-04-24T03:05:34;2.60;;;2.50;;
9986;SDS011;5033;46.310;11.214;2023-04-24T03:08:01;2.65;;;2.45;;
9986;SDS011;5033;46.310;11.214;2023-04-24T03:10:28;2.92;;;2.72;;
9986;SDS011;5033;46.310;11.214;2023-04-24T03:12:55;2.70;;;2.50;;
9986;SDS011;5033;46.310;11.214;2023-04-24T03:15:22;2.70;;;2.50;;
9986;SDS011;5033;46.310;11.214;2023-04-24T03:17:50;2.60;;;2.40;;
9986;SDS011;5033;46.310;11.214;2023-04-24T03:20:17;2.50;;;2.40;;
9986;SDS011;5033;46.310;11.214;2023-04-24T03:22:45;3.13;;;2.85;;
9986;SDS011;5033;46.310;11.214;2023-04-24T03:25:12;2.55;;;2.35;;
9986;SDS011;5033;46.310;11.214;2023-04-24T03:27:40;2.90;;;2.70;;
9986;SDS011;5033;46.310;11.214;2023-04-24T03:30:07;2.42;;;2.25;;
9986;SDS011;5033;46.310;11.214;2023-04-24T03:32:35;2.90;;;2.70;;
9986;SDS011;5033;46.310;11.214;2023-04-24T03:35:04;2.50;;;2.40;;
9986;SDS011;5033;46.310;11.214;2023-04-24T03:37:32;2.72;;;2.53;;
9986;SDS011;5033;46.310;11.214;2023-04-24T03:40:01;3.00;;;2.80;;
9986;SDS011;5033;46.310;11.214;2023-04-24T03:42:28;2.83;;;2.63;;
9986;SDS011;5033;46.310;11.214;2023-04-24T03:44:55;3.20;;;2.90;;
9986;SDS011;5033;46.310;11.214;2023-04-24T03:47:22;3.63;;;3.33;;
9986;SDS011;5033;46.310;11.214;2023-04-24T03:49:49;4.00;;;3.17;;
9986;SDS011;5033;46.310;11.214;2023-04-24T03:52:17;3.28;;;2.97;;
9986;SDS011;5033;46.310;11.214;2023-04-24T03:54:44;3.47;;;3.28;;
9986;SDS011;5033;46.310;11.214;2023-04-24T03:57:14;3.25;;;3.05;;
9986;SDS011;5033;46.310;11.214;2023-04-24T03:59:41;3.25;;;3.03;;
9986;SDS011;5033;46.310;11.214;2023-04-24T04:02:08;128.85;;;8.07;;
9986;SDS011;5033;46.310;11.214;2023-04-24T04:04:35;420.00;;;16.95;;
9986;SDS011;5033;46.310;11.214;2023-04-24T04:07:02;275.10;;;14.48;;
9986;SDS011;5033;46.310;11.214;2023-04-24T04:09:30;5.35;;;4.95;;
9986;SDS011;5033;46.310;11.214;2023-04-24T04:11:57;2.47;;;2.30;;
9986;SDS011;5033;46.310;11.214;2023-04-24T04:14:27;1.45;;;1.38;;
9986;SDS011;5033;46.310;11.214;2023-04-24T04:16:53;1.50;;;1.40;;
9986;SDS011;5033;46.310;11.214;2023-04-24T04:19:20;3.10;;;1.50;;
9986;SDS011;5033;46.310;11.214;2023-04-24T04:21:48;1.30;;;1.30;;
9986;SDS011;5033;46.310;11.214;2023-04-24T04:24:18;1.70;;;1.50;;
9986;SDS011;5033;46.310;11.214;2023-04-24T04:26:47;1.20;;;1.10;;
9986;SDS011;5033;46.310;11.214;2023-04-24T04:29:16;1.77;;;1.27;;
9986;SDS011;5033;46.310;11.214;2023-04-24T04:31:45;1.20;;;1.20;;
9986;SDS011;5033;46.310;11.214;2023-04-24T04:34:13;1.10;;;1.10;;
9986;SDS011;5033;46.310;11.214;2023-04-24T04:36:40;1.20;;;1.17;;
9986;SDS011;5033;46.310;11.214;2023-04-24T04:39:09;1.45;;;1.13;;
9986;SDS011;5033;46.310;11.214;2023-04-24T04:41:36;1.38;;;1.30;;
9986;SDS011;5033;46.310;11.214;2023-04-24T04:44:05;2.58;;;1.38;;
9986;SDS011;5033;46.310;11.214;2023-04-24T04:46:33;1.70;;;1.60;;
9986;SDS011;5033;46.310;11.214;2023-04-24T04:49:03;1.65;;;1.55;;
9986;SDS011;5033;46.310;11.214;2023-04-24T04:51:31;1.73;;;1.63;;
9986;SDS011;5033;46.310;11.214;2023-04-24T04:53:58;1.60;;;1.50;;
9986;SDS011;5033;46.310;11.214;2023-04-24T04:56:25;3.13;;;1.80;;
9986;SDS011;5033;46.310;11.214;2023-04-24T04:58:52;1.55;;;1.45;;
9986;SDS011;5033;46.310;11.214;2023-04-24T05:01:19;1.33;;;1.33;;
9986;SDS011;5033;46.310;11.214;2023-04-24T05:03:49;1.40;;;1.40;;
9986;SDS011;5033;46.310;11.214;2023-04-24T05:06:17;1.67;;;1.58;;
9986;SDS011;5033;46.310;11.214;2023-04-24T05:08:44;1.35;;;1.35;;
9986;SDS011;5033;46.310;11.214;2023-04-24T05:11:12;1.58;;;1.50;;
9986;SDS011;5033;46.310;11.214;2023-04-24T05:13:39;2.17;;;1.60;;
9986;SDS011;5033;46.310;11.214;2023-04-24T05:16:06;1.27;;;1.25;;
9986;SDS011;5033;46.310;11.214;2023-04-24T05:18:33;2.15;;;1.80;;
9986;SDS011;5033;46.310;11.214;2023-04-24T05:21:00;1.75;;;1.65;;
9986;SDS011;5033;46.310;11.214;2023-04-24T05:23:29;1.60;;;1.50;;
9986;SDS011;5033;46.310;11.214;2023-04-24T05:25:56;1.20;;;1.20;;
9986;SDS011;5033;46.310;11.214;2023-04-24T05:28:23;2.17;;;1.67;;
9986;SDS011;5033;46.310;11.214;2023-04-24T05:30:53;1.70;;;1.60;;
9986;SDS011;5033;46.310;11.214;2023-04-24T05:33:20;1.55;;;1.55;;
9986;SDS011;5033;46.310;11.214;2023-04-24T05:35:48;1.40;;;1.30;;
9986;SDS011;5033;46.310;11.214;2023-04-24T05:38:15;1.10;;;1.10;;
9986;SDS011;5033;46.310;11.214;2023-04-24T05:40:46;1.40;;;1.30;;
9986;SDS011;5033;46.310;11.214;2023-04-24T05:43:13;1.00;;;1.00;;
9986;SDS011;5033;46.310;11.214;2023-04-24T05:45:40;1.35;;;1.35;;
9986;SDS011;5033;46.310;11.214;2023-04-24T05:48:07;1.20;;;1.20;;
9986;SDS011;5033;46.310;11.214;2023-04-24T05:50:34;1.05;;;1.05;;
9986;SDS011;5033;46.310;11.214;2023-04-24T05:53:01;1.40;;;1.40;;
9986;SDS011;5033;46.310;11.214;2023-04-24T05:55:28;1.20;;;1.20;;
9986;SDS011;5033;46.310;11.214;2023-04-24T05:57:58;1.30;;;1.30;;
9986;SDS011;5033;46.310;11.214;2023-04-24T06:00:25;1.30;;;1.30;;
9986;SDS011;5033;46.310;11.214;2023-04-24T06:02:53;1.50;;;1.40;;
9986;SDS011;5033;46.310;11.214;2023-04-24T06:05:21;1.00;;;1.00;;
9986;SDS011;5033;46.310;11.214;2023-04-24T06:07:48;1.23;;;1.23;;
9986;SDS011;5033;46.310;11.214;2023-04-24T06:10:15;1.40;;;1.30;;
9986;SDS011;5033;46.310;11.214;2023-04-24T06:12:42;1.35;;;1.35;;
9986;SDS011;5033;46.310;11.214;2023-04-24T06:15:11;1.00;;;1.00;;
9986;SDS011;5033;46.310;11.214;2023-04-24T06:17:40;1.10;;;1.00;;
9986;SDS011;5033;46.310;11.214;2023-04-24T06:20:07;1.00;;;1.00;;
9986;SDS011;5033;46.310;11.214;2023-04-24T06:22:36;1.10;;;1.10;;
9986;SDS011;5033;46.310;11.214;2023-04-24T06:25:05;1.20;;;1.20;;
9986;SDS011;5033;46.310;11.214;2023-04-24T06:27:32;1.10;;;1.10;;
9986;SDS011;5033;46.310;11.214;2023-04-24T06:30:00;1.00;;;1.00;;
9986;SDS011;5033;46.310;11.214;2023-04-24T06:32:30;1.35;;;1.35;;
9986;SDS011;5033;46.310;11.214;2023-04-24T06:34:57;1.58;;;1.48;;
9986;SDS011;5033;46.310;11.214;2023-04-24T06:37:24;1.40;;;1.40;;
9986;SDS011;5033;46.310;11.214;2023-04-24T06:39:52;1.55;;;1.45;;
9986;SDS011;5033;46.310;11.214;2023-04-24T06:42:19;1.92;;;1.30;;
9986;SDS011;5033;46.310;11.214;2023-04-24T06:44:47;1.08;;;1.08;;
9986;SDS011;5033;46.310;11.214;2023-04-24T06:47:14;2.67;;;1.83;;
9986;SDS011;5033;46.310;11.214;2023-04-24T06:49:42;1.30;;;1.30;;
9986;SDS011;5033;46.310;11.214;2023-04-24T06:52:10;1.45;;;1.45;;
9986;SDS011;5033;46.310;11.214;2023-04-24T06:54:36;1.98;;;1.88;;
9986;SDS011;5033;46.310;11.214;2023-04-24T06:57:04;2.00;;;1.90;;
9986;SDS011;5033;46.310;11.214;2023-04-24T06:59:31;2.20;;;2.10;;
9986;SDS011;5033;46.310;11.214;2023-04-24T07:01:58;2.40;;;2.30;;
9986;SDS011;5033;46.310;11.214;2023-04-24T07:04:25;2.42;;;2.33;;
9986;SDS011;5033;46.310;11.214;2023-04-24T07:06:54;2.40;;;2.30;;
9986;SDS011;5033;46.310;11.214;2023-04-24T07:09:23;2.10;;;2.00;;
9986;SDS011;5033;46.310;11.214;2023-04-24T07:11:52;2.00;;;1.90;;
9986;SDS011;5033;46.310;11.214;2023-04-24T07:14:21;2.00;;;1.90;;
9986;SDS011;5033;46.310;11.214;2023-04-24T07:16:48;1.58;;;1.58;;
9986;SDS011;5033;46.310;11.214;2023-04-24T07:19:16;1.50;;;1.50;;
9986;SDS011;5033;46.310;11.214;2023-04-24T07:21:43;1.40;;;1.40;;
9986;SDS011;5033;46.310;11.214;2023-04-24T07:24:12;1.23;;;1.23;;
9986;SDS011;5033;46.310;11.214;2023-04-24T07:26:39;1.25;;;1.25;;
9986;SDS011;5033;46.310;11.214;2023-04-24T07:29:06;1.17;;;1.17;;
9986;SDS011;5033;46.310;11.214;2023-04-24T07:31:33;1.30;;;1.30;;
9986;SDS011;5033;46.310;11.214;2023-04-24T07:34:00;1.25;;;1.25;;
9986;SDS011;5033;46.310;11.214;2023-04-24T07:36:27;1.38;;;1.27;;
9986;SDS011;5033;46.310;11.214;2023-04-24T07:38:55;1.60;;;1.50;;
9986;SDS011;5033;46.310;11.214;2023-04-24T07:41:24;1.30;;;1.30;;
9986;SDS011;5033;46.310;11.214;2023-04-24T07:43:52;1.23;;;1.23;;
9986;SDS011;5033;46.310;11.214;2023-04-24T07:46:19;1.40;;;1.40;;
9986;SDS011;5033;46.310;11.214;2023-04-24T07:48:48;1.30;;;1.30;;
9986;SDS011;5033;46.310;11.214;2023-04-24T07:51:15;1.20;;;1.20;;
9986;SDS011;5033;46.310;11.214;2023-04-24T07:53:43;1.25;;;1.25;;
9986;SDS011;5033;46.310;11.214;2023-04-24T07:56:10;1.25;;;1.25;;
9986;SDS011;5033;46.310;11.214;2023-04-24T07:58:39;1.00;;;1.00;;
9986;SDS011;5033;46.310;11.214;2023-04-24T08:01:06;1.30;;;1.30;;
9986;SDS011;5033;46.310;11.214;2023-04-24T08:03:33;1.30;;;1.30;;
9986;SDS011;5033;46.310;11.214;2023-04-24T08:06:00;1.40;;;1.30;;
9986;SDS011;5033;46.310;11.214;2023-04-24T08:08:27;1.30;;;1.27;;
9986;SDS011;5033;46.310;11.214;2023-04-24T08:10:55;1.58;;;1.38;;
9986;SDS011;5033;46.310;11.214;2023-04-24T08:13:22;1.63;;;1.50;;
9986;SDS011;5033;46.310;11.214;2023-04-24T08:15:51;1.50;;;1.40;;
9986;SDS011;5033;46.310;11.214;2023-04-24T08:18:18;2.05;;;1.50;;
9986;SDS011;5033;46.310;11.214;2023-04-24T08:20:46;1.90;;;1.80;;
9986;SDS011;5033;46.310;11.214;2023-04-24T08:23:13;1.80;;;1.70;;
9986;SDS011;5033;46.310;11.214;2023-04-24T08:25:40;2.13;;;1.92;;
9986;SDS011;5033;46.310;11.214;2023-04-24T08:28:08;2.10;;;1.80;;
9986;SDS011;5033;46.310;11.214;2023-04-24T08:30:35;2.45;;;2.25;;
9986;SDS011;5033;46.310;11.214;2023-04-24T08:33:05;2.25;;;2.03;;
9986;SDS011;5033;46.310;11.214;2023-04-24T08:35:32;2.70;;;2.20;;
9986;SDS011;5033;46.310;11.214;2023-04-24T08:37:59;2.20;;;2.08;;
9986;SDS011;5033;46.310;11.214;2023-04-24T08:40:27;1.85;;;1.75;;
9986;SDS011;5033;46.310;11.214;2023-04-24T08:42:55;2.00;;;1.90;;
9986;SDS011;5033;46.310;11.214;2023-04-24T08:45:23;2.20;;;2.10;;
9986;SDS011;5033;46.310;11.214;2023-04-24T08:47:51;1.80;;;1.70;;
9986;SDS011;5033;46.310;11.214;2023-04-24T08:50:21;1.95;;;1.58;;
9986;SDS011;5033;46.310;11.214;2023-04-24T08:52:50;2.47;;;1.60;;
9986;SDS011;5033;46.310;11.214;2023-04-24T08:55:18;1.40;;;1.40;;
9986;SDS011;5033;46.310;11.214;2023-04-24T08:57:49;1.20;;;1.20;;
9986;SDS011;5033;46.310;11.214;2023-04-24T09:00:19;2.13;;;1.92;;
9986;SDS011;5033;46.310;11.214;2023-04-24T09:02:47;1.60;;;1.50;;
9986;SDS011;5033;46.310;11.214;2023-04-24T09:05:16;1.77;;;1.67;;
9986;SDS011;5033;46.310;11.214;2023-04-24T09:07:47;2.03;;;1.73;;
9986;SDS011;5033;46.310;11.214;2023-04-24T09:10:17;2.00;;;1.90;;
9986;SDS011;5033;46.310;11.214;2023-04-24T09:12:44;1.52;;;1.42;;
9986;SDS011;5033;46.310;11.214;2023-04-24T09:15:12;1.42;;;1.35;;
9986;SDS011;5033;46.310;11.214;2023-04-24T09:17:40;1.70;;;1.60;;
9986;SDS011;5033;46.310;11.214;2023-04-24T09:20:07;1.40;;;1.40;;
9986;SDS011;5033;46.310;11.214;2023-04-24T09:22:35;1.38;;;1.38;;
9986;SDS011;5033;46.310;11.214;2023-04-24T09:25:05;1.50;;;1.40;;
9986;SDS011;5033;46.310;11.214;2023-04-24T09:27:34;1.35;;;1.25;;
9986;SDS011;5033;46.310;11.214;2023-04-24T09:30:01;1.70;;;1.60;;
9986;SDS011;5033;46.310;11.214;2023-04-24T09:32:29;1.40;;;1.30;;
9986;SDS011;5033;46.310;11.214;2023-04-24T09:35:06;1.67;;;1.58;;
9986;SDS011;5033;46.310;11.214;2023-04-24T09:37:35;1.52;;;1.50;;
9986;SDS011;5033;46.310;11.214;2023-04-24T09:40:10;1.60;;;1.48;;
9986;SDS011;5033;46.310;11.214;2023-04-24T09:42:38;2.30;;;2.10;;
9986;SDS011;5033;46.310;11.214;2023-04-24T09:45:08;1.40;;;1.30;;
9986;SDS011;5033;46.310;11.214;2023-04-24T09:47:36;1.38;;;1.35;;
9986;SDS011;5033;46.310;11.214;2023-04-24T09:50:13;1.17;;;1.17;;
9986;SDS011;5033;46.310;11.214;2023-04-24T09:52:42;1.10;;;1.10;;
9986;SDS011;5033;46.310;11.214;2023-04-24T09:55:12;1.42;;;1.40;;
9986;SDS011;5033;46.310;11.214;2023-04-24T09:57:47;1.30;;;1.30;;
9986;SDS011;5033;46.310;11.214;2023-04-24T10:00:18;1.30;;;1.30;;
9986;SDS011;5033;46.310;11.214;2023-04-24T10:02:51;1.67;;;1.58;;
9986;SDS011;5033;46.310;11.214;2023-04-24T10:05:22;1.27;;;1.20;;
9986;SDS011;5033;46.310;11.214;2023-04-24T10:07:51;1.13;;;1.13;;
9986;SDS011;5033;46.310;11.214;2023-04-24T10:10:23;1.20;;;1.20;;
9986;SDS011;5033;46.310;11.214;2023-04-24T10:12:51;1.25;;;1.05;;
9986;SDS011;5033;46.310;11.214;2023-04-24T10:15:19;1.30;;;1.20;;
9986;SDS011;5033;46.310;11.214;2023-04-24T10:17:47;1.17;;;1.17;;
9986;SDS011;5033;46.310;11.214;2023-04-24T10:20:18;1.30;;;1.30;;
9986;SDS011;5033;46.310;11.214;2023-04-24T10:22:50;1.30;;;1.30;;
9986;SDS011;5033;46.310;11.214;2023-04-24T10:25:19;1.55;;;1.45;;
9986;SDS011;5033;46.310;11.214;2023-04-24T10:27:49;1.08;;;1.08;;
9986;SDS011;5033;46.310;11.214;2023-04-24T10:30:18;1.40;;;1.30;;
9986;SDS011;5033;46.310;11.214;2023-04-24T10:32:45;1.52;;;1.42;;
9986;SDS011;5033;46.310;11.214;2023-04-24T10:35:13;1.30;;;1.30;;
9986;SDS011;5033;46.310;11.214;2023-04-24T10:37:43;1.27;;;1.20;;
9986;SDS011;5033;46.310;11.214;2023-04-24T10:40:16;1.20;;;1.10;;
9986;SDS011;5033;46.310;11.214;2023-04-24T10:42:47;1.45;;;1.35;;
9986;SDS011;5033;46.310;11.214;2023-04-24T10:45:17;1.85;;;1.20;;
9986;SDS011;5033;46.310;11.214;2023-04-24T10:47:52;1.02;;;1.02;;
9986;SDS011;5033;46.310;11.214;2023-04-24T10:50:23;1.13;;;1.13;;
9986;SDS011;5033;46.310;11.214;2023-04-24T10:52:51;1.30;;;1.20;;
9986;SDS011;5033;46.310;11.214;2023-04-24T10:58:13;1.42;;;1.25;;
9986;SDS011;5033;46.310;11.214;2023-04-24T11:00:41;1.38;;;1.27;;
9986;SDS011;5033;46.310;11.214;2023-04-24T11:03:22;1.35;;;1.25;;
9986;SDS011;5033;46.310;11.214;2023-04-24T11:05:51;1.50;;;1.40;;
9986;SDS011;5033;46.310;11.214;2023-04-24T11:08:23;0.93;;;0.90;;
9986;SDS011;5033;46.310;11.214;2023-04-24T11:10:59;1.13;;;1.10;;
9986;SDS011;5033;46.310;11.214;2023-04-24T11:16:33;3.35;;;1.15;;
9986;SDS011;5033;46.310;11.214;2023-04-24T11:19:03;1.25;;;1.25;;
9986;SDS011;5033;46.310;11.214;2023-04-24T11:21:38;1.30;;;1.20;;
9986;SDS011;5033;46.310;11.214;2023-04-24T11:24:26;1.40;;;1.33;;
9986;SDS011;5033;46.310;11.214;2023-04-24T11:26:58;1.90;;;1.20;;
9986;SDS011;5033;46.310;11.214;2023-04-24T11:29:42;1.40;;;1.10;;
9986;SDS011;5033;46.310;11.214;2023-04-24T11:32:26;1.42;;;1.33;;
9986;SDS011;5033;46.310;11.214;2023-04-24T11:34:54;1.30;;;1.30;;
9986;SDS011;5033;46.310;11.214;2023-04-24T11:37:22;1.88;;;1.30;;
9986;SDS011;5033;46.310;11.214;2023-04-24T11:39:52;2.67;;;1.52;;
9986;SDS011;5033;46.310;11.214;2023-04-24T11:42:21;1.50;;;1.40;;
9986;SDS011;5033;46.310;11.214;2023-04-24T11:44:51;1.52;;;1.42;;
9986;SDS011;5033;46.310;11.214;2023-04-24T11:47:19;2.15;;;1.48;;
9986;SDS011;5033;46.310;11.214;2023-04-24T11:49:46;1.98;;;1.35;;
9986;SDS011;5033;46.310;11.214;2023-04-24T11:52:16;1.02;;;1.00;;
9986;SDS011;5033;46.310;11.214;2023-04-24T11:54:47;1.40;;;1.30;;
9986;SDS011;5033;46.310;11.214;2023-04-24T11:57:15;1.20;;;1.00;;
9986;SDS011;5033;46.310;11.214;2023-04-24T11:59:42;1.23;;;1.08;;
9986;SDS011;5033;46.310;11.214;2023-04-24T12:02:20;1.40;;;1.20;;
9986;SDS011;5033;46.310;11.214;2023-04-24T12:04:48;1.08;;;1.08;;
9986;SDS011;5033;46.310;11.214;2023-04-24T12:07:16;0.98;;;0.98;;
9986;SDS011;5033;46.310;11.214;2023-04-24T12:09:43;1.27;;;0.95;;
9986;SDS011;5033;46.310;11.214;2023-04-24T12:12:12;1.90;;;1.10;;
9986;SDS011;5033;46.310;11.214;2023-04-24T12:14:49;1.08;;;1.02;;
9986;SDS011;5033;46.310;11.214;2023-04-24T12:17:23;2.65;;;1.10;;
9986;SDS011;5033;46.310;11.214;2023-04-24T12:19:51;1.25;;;1.15;;
9986;SDS011;5033;46.310;11.214;2023-04-24T12:22:18;0.73;;;0.73;;
9986;SDS011;5033;46.310;11.214;2023-04-24T12:24:55;0.90;;;0.90;;
9986;SDS011;5033;46.310;11.214;2023-04-24T12:27:24;0.95;;;0.95;;
9986;SDS011;5033;46.310;11.214;2023-04-24T12:29:52;0.90;;;0.90;;
9986;SDS011;5033;46.310;11.214;2023-04-24T12:32:24;1.08;;;1.08;;
9986;SDS011;5033;46.310;11.214;2023-04-24T12:34:52;1.95;;;1.05;;
9986;SDS011;5033;46.310;11.214;2023-04-24T12:37:20;0.90;;;0.90;;
9986;SDS011;5033;46.310;11.214;2023-04-24T12:40:03;0.90;;;0.90;;
9986;SDS011;5033;46.310;11.214;2023-04-24T12:42:32;0.80;;;0.80;;
9986;SDS011;5033;46.310;11.214;2023-04-24T12:45:01;0.88;;;0.88;;
9986;SDS011;5033;46.310;11.214;2023-04-24T12:47:31;1.10;;;0.95;;
9986;SDS011;5033;46.310;11.214;2023-04-24T12:50:00;0.70;;;0.70;;
9986;SDS011;5033;46.310;11.214;2023-04-24T12:52:28;0.88;;;0.88;;
9986;SDS011;5033;46.310;11.214;2023-04-24T12:54:57;1.10;;;1.10;;
9986;SDS011;5033;46.310;11.214;2023-04-24T12:57:25;0.82;;;0.82;;
9986;SDS011;5033;46.310;11.214;2023-04-24T12:59:53;0.93;;;0.93;;
9986;SDS011;5033;46.310;11.214;2023-04-24T13:02:21;0.82;;;0.82;;
9986;SDS011;5033;46.310;11.214;2023-04-24T13:04:50;0.70;;;0.70;;
9986;SDS011;5033;46.310;11.214;2023-04-24T13:07:18;0.90;;;0.90;;
9986;SDS011;5033;46.310;11.214;2023-04-24T13:09:46;0.88;;;0.88;;
9986;SDS011;5033;46.310;11.214;2023-04-24T13:12:16;0.90;;;0.90;;
9986;SDS011;5033;46.310;11.214;2023-04-24T13:14:44;0.90;;;0.80;;
9986;SDS011;5033;46.310;11.214;2023-04-24T13:17:12;0.80;;;0.80;;
9986;SDS011;5033;46.310;11.214;2023-04-24T13:19:41;1.80;;;0.82;;
9986;SDS011;5033;46.310;11.214;2023-04-24T13:22:11;0.80;;;0.80;;
9986;SDS011;5033;46.310;11.214;2023-04-24T13:24:39;0.57;;;0.57;;
9986;SDS011;5033;46.310;11.214;2023-04-24T13:27:06;0.95;;;0.75;;
9986;SDS011;5033;46.310;11.214;2023-04-24T13:29:34;0.82;;;0.70;;
9986;SDS011;5033;46.310;11.214;2023-04-24T13:32:01;0.85;;;0.85;;
9986;SDS011;5033;46.310;11.214;2023-04-24T13:34:28;0.70;;;0.70;;
9986;SDS011;5033;46.310;11.214;2023-04-24T13:36:56;0.60;;;0.60;;
9986;SDS011;5033;46.310;11.214;2023-04-24T13:39:25;0.70;;;0.70;;
9986;SDS011;5033;46.310;11.214;2023-04-24T13:41:53;0.80;;;0.80;;
9986;SDS011;5033;46.310;11.214;2023-04-24T13:44:20;1.25;;;0.70;;
9986;SDS011;5033;46.310;11.214;2023-04-24T13:46:49;0.80;;;0.80;;
9986;SDS011;5033;46.310;11.214;2023-04-24T13:49:19;0.77;;;0.77;;
9986;SDS011;5033;46.310;11.214;2023-04-24T13:51:49;1.40;;;0.80;;
9986;SDS011;5033;46.310;11.214;2023-04-24T13:54:18;4.10;;;1.10;;
9986;SDS011;5033;46.310;11.214;2023-04-24T13:56:47;0.95;;;0.80;;
9986;SDS011;5033;46.310;11.214;2023-04-24T13:59:14;2.38;;;0.80;;
9986;SDS011;5033;46.310;11.214;2023-04-24T14:01:41;1.17;;;0.73;;
9986;SDS011;5033;46.310;11.214;2023-04-24T14:04:10;0.80;;;0.80;;
9986;SDS011;5033;46.310;11.214;2023-04-24T14:06:37;0.70;;;0.70;;
9986;SDS011;5033;46.310;11.214;2023-04-24T14:09:04;0.57;;;0.57;;
9986;SDS011;5033;46.310;11.214;2023-04-24T14:11:33;0.55;;;0.55;;
9986;SDS011;5033;46.310;11.214;2023-04-24T14:14:02;0.63;;;0.63;;
9986;SDS011;5033;46.310;11.214;2023-04-24T14:16:29;0.50;;;0.50;;
9986;SDS011;5033;46.310;11.214;2023-04-24T14:18:56;0.70;;;0.70;;
9986;SDS011;5033;46.310;11.214;2023-04-24T14:21:23;0.80;;;0.80;;
9986;SDS011;5033;46.310;11.214;2023-04-24T14:23:51;0.70;;;0.70;;
9986;SDS011;5033;46.310;11.214;2023-04-24T14:26:19;0.60;;;0.60;;
9986;SDS011;5033;46.310;11.214;2023-04-24T14:28:46;0.70;;;0.70;;
9986;SDS011;5033;46.310;11.214;2023-04-24T14:31:15;0.80;;;0.80;;
9986;SDS011;5033;46.310;11.214;2023-04-24T14:33:42;0.63;;;0.63;;
9986;SDS011;5033;46.310;11.214;2023-04-24T14:36:09;0.60;;;0.60;;
9986;SDS011;5033;46.310;11.214;2023-04-24T14:38:36;0.50;;;0.50;;
9986;SDS011;5033;46.310;11.214;2023-04-24T14:41:04;0.70;;;0.70;;
9986;SDS011;5033;46.310;11.214;2023-04-24T14:43:34;0.63;;;0.63;;
9986;SDS011;5033;46.310;11.214;2023-04-24T14:46:01;0.93;;;0.80;;
9986;SDS011;5033;46.310;11.214;2023-04-24T14:48:30;0.85;;;0.70;;
9986;SDS011;5033;46.310;11.214;2023-04-24T14:50:57;0.75;;;0.75;;
9986;SDS011;5033;46.310;11.214;2023-04-24T14:53:24;0.85;;;0.73;;
9986;SDS011;5033;46.310;11.214;2023-04-24T14:55:52;0.70;;;0.70;;
9986;SDS011;5033;46.310;11.214;2023-04-24T14:58:19;1.77;;;0.90;;
9986;SDS011;5033;46.310;11.214;2023-04-24T15:00:47;0.98;;;0.77;;
9986;SDS011;5033;46.310;11.214;2023-04-24T15:03:17;0.80;;;0.80;;
9986;SDS011;5033;46.310;11.214;2023-04-24T15:05:48;0.73;;;0.73;;
9986;SDS011;5033;46.310;11.214;2023-04-24T15:08:15;0.77;;;0.77;;
9986;SDS011;5033;46.310;11.214;2023-04-24T15:10:42;2.05;;;0.75;;
9986;SDS011;5033;46.310;11.214;2023-04-24T15:13:09;0.70;;;0.70;;